sensor_id;sensor_type;location;lat;lon;timestamp;pressure;altitude;pressure_sealevel;temperature;humidity
19827;BME280;10074;52.018;4.726;2022-07-22T00:01:18;46251.34;;;-144.79;100.00
19827;BME280;10074;52.018;4.726;2022-07-22T00:06:19;46263.38;;;-144.79;100.00
19827;BME280;10074;52.018;4.726;2022-07-22T00:11:21;46259.34;;;-144.79;100.00
19827;BME280;10074;52.018;4.726;2022-07-22T00:16:21;46255.34;;;-144.79;100.00
19827;BME280;10074;52.018;4.726;2022-07-22T00:21:22;46261.34;;;-144.79;100.00
19827;BME280;10074;52.018;4.726;2022-07-22T00:26:22;46265.38;;;-144.79;100.00
19827;BME280;10074;52.018;4.726;2022-07-22T00:31:22;46253.34;;;-144.79;100.00
19827;BME280;10074;52.018;4.726;2022-07-22T00:36:23;46253.34;;;-144.79;100.00
19827;BME280;10074;52.018;4.726;2022-07-22T00:41:23;46247.31;;;-144.79;100.00
19827;BME280;10074;52.018;4.726;2022-07-22T00:46:24;46263.38;;;-144.79;100.00
19827;BME280;10074;52.018;4.726;2022-07-22T00:51:27;46257.34;;;-144.79;100.00
19827;BME280;10074;52.018;4.726;2022-07-22T00:56:28;46251.34;;;-144.79;100.00
19827;BME280;10074;52.018;4.726;2022-07-22T01:01:28;46255.34;;;-144.79;100.00
19827;BME280;10074;52.018;4.726;2022-07-22T01:06:29;46259.34;;;-144.79;100.00
19827;BME280;10074;52.018;4.726;2022-07-22T01:11:30;46259.34;;;-144.79;100.00
19827;BME280;10074;52.018;4.726;2022-07-22T01:16:30;46255.34;;;-144.79;100.00
19827;BME280;10074;52.018;4.726;2022-07-22T01:21:31;46261.34;;;-144.79;100.00
19827;BME280;10074;52.018;4.726;2022-07-22T01:26:32;46251.34;;;-144.79;100.00
19827;BME280;10074;52.018;4.726;2022-07-22T01:31:33;46247.31;;;-144.79;100.00
19827;BME280;10074;52.018;4.726;2022-07-22T01:36:33;46257.34;;;-144.79;100.00
19827;BME280;10074;52.018;4.726;2022-07-22T01:41:34;46253.34;;;-144.79;100.00
19827;BME280;10074;52.018;4.726;2022-07-22T01:46:34;46257.34;;;-144.79;100.00
19827;BME280;10074;52.018;4.726;2022-07-22T01:51:34;46261.34;;;-144.79;100.00
19827;BME280;10074;52.018;4.726;2022-07-22T01:56:34;46259.34;;;-144.79;100.00
19827;BME280;10074;52.018;4.726;2022-07-22T02:01:35;46255.34;;;-144.79;100.00
19827;BME280;10074;52.018;4.726;2022-07-22T02:06:35;46255.34;;;-144.79;100.00
19827;BME280;10074;52.018;4.726;2022-07-22T02:11:35;46251.34;;;-144.79;100.00
19827;BME280;10074;52.018;4.726;2022-07-22T02:16:36;46251.34;;;-144.79;100.00
19827;BME280;10074;52.018;4.726;2022-07-22T02:21:36;46259.34;;;-144.79;100.00
19827;BME280;10074;52.018;4.726;2022-07-22T02:26:37;46263.38;;;-144.79;100.00
19827;BME280;10074;52.018;4.726;2022-07-22T02:31:38;46255.34;;;-144.79;100.00
19827;BME280;10074;52.018;4.726;2022-07-22T02:36:38;46247.31;;;-144.79;100.00
19827;BME280;10074;52.018;4.726;2022-07-22T02:41:39;46259.34;;;-144.79;100.00
19827;BME280;10074;52.018;4.726;2022-07-22T02:46:39;46255.34;;;-144.79;100.00
19827;BME280;10074;52.018;4.726;2022-07-22T02:51:39;46257.34;;;-144.79;100.00
19827;BME280;10074;52.018;4.726;2022-07-22T02:56:40;46255.34;;;-144.79;100.00
19827;BME280;10074;52.018;4.726;2022-07-22T03:01:40;46253.34;;;-144.79;100.00
19827;BME280;10074;52.018;4.726;2022-07-22T03:06:41;46255.34;;;-144.79;100.00
19827;BME280;10074;52.018;4.726;2022-07-22T03:11:41;46253.34;;;-144.79;100.00
19827;BME280;10074;52.018;4.726;2022-07-22T03:16:41;46251.34;;;-144.79;100.00
19827;BME280;10074;52.018;4.726;2022-07-22T03:21:42;46251.34;;;-144.79;100.00
19827;BME280;10074;52.018;4.726;2022-07-22T03:26:42;46255.34;;;-144.79;100.00
19827;BME280;10074;52.018;4.726;2022-07-22T03:31:42;46255.34;;;-144.79;100.00
19827;BME280;10074;52.018;4.726;2022-07-22T03:36:43;46253.34;;;-144.79;100.00
19827;BME280;10074;52.018;4.726;2022-07-22T03:41:43;46255.34;;;-144.79;100.00
19827;BME280;10074;52.018;4.726;2022-07-22T03:46:43;46251.34;;;-144.79;100.00
19827;BME280;10074;52.018;4.726;2022-07-22T03:51:43;46259.34;;;-144.79;100.00
19827;BME280;10074;52.018;4.726;2022-07-22T03:56:44;46251.34;;;-144.79;100.00
19827;BME280;10074;52.018;4.726;2022-07-22T04:01:44;46257.34;;;-144.79;100.00
19827;BME280;10074;52.018;4.726;2022-07-22T04:06:44;46247.31;;;-144.79;100.00
19827;BME280;10074;52.018;4.726;2022-07-22T04:11:45;46253.34;;;-144.79;100.00
19827;BME280;10074;52.018;4.726;2022-07-22T04:16:46;46253.34;;;-144.79;100.00
19827;BME280;10074;52.018;4.726;2022-07-22T04:21:46;46251.34;;;-144.79;100.00
19827;BME280;10074;52.018;4.726;2022-07-22T04:26:46;46251.34;;;-144.79;100.00
19827;BME280;10074;52.018;4.726;2022-07-22T04:31:47;46245.31;;;-144.79;100.00
19827;BME280;10074;52.018;4.726;2022-07-22T04:36:47;46247.31;;;-144.79;100.00
19827;BME280;10074;52.018;4.726;2022-07-22T04:41:47;46251.34;;;-144.79;100.00
19827;BME280;10074;52.018;4.726;2022-07-22T04:46:48;46251.34;;;-144.79;100.00
19827;BME280;10074;52.018;4.726;2022-07-22T04:51:48;46255.34;;;-144.79;100.00
19827;BME280;10074;52.018;4.726;2022-07-22T04:56:49;46259.34;;;-144.79;100.00
19827;BME280;10074;52.018;4.726;2022-07-22T05:01:49;46245.31;;;-144.79;100.00
19827;BME280;10074;52.018;4.726;2022-07-22T05:06:49;46247.31;;;-144.79;100.00
19827;BME280;10074;52.018;4.726;2022-07-22T05:11:49;46251.34;;;-144.79;100.00
19827;BME280;10074;52.018;4.726;2022-07-22T05:16:50;46253.34;;;-144.79;100.00
19827;BME280;10074;52.018;4.726;2022-07-22T05:21:50;46247.31;;;-144.79;100.00
19827;BME280;10074;52.018;4.726;2022-07-22T05:26:50;46255.34;;;-144.79;100.00
19827;BME280;10074;52.018;4.726;2022-07-22T05:31:50;46249.34;;;-144.79;100.00
19827;BME280;10074;52.018;4.726;2022-07-22T05:36:51;46243.31;;;-144.79;100.00
19827;BME280;10074;52.018;4.726;2022-07-22T05:41:51;46241.31;;;-144.79;100.00
19827;BME280;10074;52.018;4.726;2022-07-22T05:46:51;46249.34;;;-144.79;100.00
19827;BME280;10074;52.018;4.726;2022-07-22T05:51:52;46251.34;;;-144.79;100.00
19827;BME280;10074;52.018;4.726;2022-07-22T05:56:53;46243.31;;;-144.79;100.00
19827;BME280;10074;52.018;4.726;2022-07-22T06:01:53;46241.31;;;-144.79;100.00
19827;BME280;10074;52.018;4.726;2022-07-22T06:06:53;46241.31;;;-144.79;100.00
19827;BME280;10074;52.018;4.726;2022-07-22T06:11:53;46243.31;;;-144.79;100.00
19827;BME280;10074;52.018;4.726;2022-07-22T06:16:54;46235.28;;;-144.79;100.00
19827;BME280;10074;52.018;4.726;2022-07-22T06:21:55;46251.34;;;-144.79;100.00
19827;BME280;10074;52.018;4.726;2022-07-22T06:26:55;46249.34;;;-144.79;100.00
19827;BME280;10074;52.018;4.726;2022-07-22T06:31:56;46241.31;;;-144.79;100.00
19827;BME280;10074;52.018;4.726;2022-07-22T06:36:56;46235.28;;;-144.79;100.00
19827;BME280;10074;52.018;4.726;2022-07-22T06:41:56;46239.31;;;-144.79;100.00
19827;BME280;10074;52.018;4.726;2022-07-22T06:46:57;46239.31;;;-144.79;100.00
19827;BME280;10074;52.018;4.726;2022-07-22T06:51:57;46245.31;;;-144.79;100.00
19827;BME280;10074;52.018;4.726;2022-07-22T06:56:57;46235.28;;;-144.79;100.00
19827;BME280;10074;52.018;4.726;2022-07-22T07:01:58;46233.28;;;-144.79;100.00
19827;BME280;10074;52.018;4.726;2022-07-22T07:06:58;46241.31;;;-144.79;100.00
19827;BME280;10074;52.018;4.726;2022-07-22T07:11:58;46233.28;;;-144.79;100.00
19827;BME280;10074;52.018;4.726;2022-07-22T07:16:58;46231.28;;;-144.79;100.00
19827;BME280;10074;52.018;4.726;2022-07-22T07:21:59;46235.28;;;-144.79;100.00
19827;BME280;10074;52.018;4.726;2022-07-22T07:26:59;46237.31;;;-144.79;100.00
19827;BME280;10074;52.018;4.726;2022-07-22T07:31:59;46235.28;;;-144.79;100.00
19827;BME280;10074;52.018;4.726;2022-07-22T07:37:00;46233.28;;;-144.79;100.00
19827;BME280;10074;52.018;4.726;2022-07-22T07:42:00;46247.31;;;-144.79;100.00
19827;BME280;10074;52.018;4.726;2022-07-22T07:47:00;46237.31;;;-144.79;100.00
19827;BME280;10074;52.018;4.726;2022-07-22T07:52:01;46221.25;;;-144.79;100.00
19827;BME280;10074;52.018;4.726;2022-07-22T07:57:01;46233.28;;;-144.79;100.00
19827;BME280;10074;52.018;4.726;2022-07-22T08:02:01;46231.28;;;-144.79;100.00
19827;BME280;10074;52.018;4.726;2022-07-22T08:07:03;46233.28;;;-144.79;100.00
19827;BME280;10074;52.018;4.726;2022-07-22T08:12:04;46231.28;;;-144.79;100.00
19827;BME280;10074;52.018;4.726;2022-07-22T08:17:05;46231.28;;;-144.79;100.00
19827;BME280;10074;52.018;4.726;2022-07-22T08:22:05;46225.28;;;-144.79;100.00
19827;BME280;10074;52.018;4.726;2022-07-22T08:27:05;46233.28;;;-144.79;100.00
19827;BME280;10074;52.018;4.726;2022-07-22T08:32:06;46219.25;;;-144.79;100.00
19827;BME280;10074;52.018;4.726;2022-07-22T08:37:07;46219.25;;;-144.79;100.00
19827;BME280;10074;52.018;4.726;2022-07-22T08:42:07;46217.25;;;-144.79;100.00
19827;BME280;10074;52.018;4.726;2022-07-22T08:47:08;46225.28;;;-144.79;100.00
19827;BME280;10074;52.018;4.726;2022-07-22T08:52:08;46227.28;;;-144.79;100.00
19827;BME280;10074;52.018;4.726;2022-07-22T08:57:08;46227.28;;;-144.79;100.00
19827;BME280;10074;52.018;4.726;2022-07-22T09:02:10;46219.25;;;-144.79;100.00
19827;BME280;10074;52.018;4.726;2022-07-22T09:07:11;46231.28;;;-144.79;100.00
19827;BME280;10074;52.018;4.726;2022-07-22T09:12:15;46229.28;;;-144.79;100.00
19827;BME280;10074;52.018;4.726;2022-07-22T09:17:29;46231.28;;;-144.79;100.00
19827;BME280;10074;52.018;4.726;2022-07-22T09:22:35;46229.28;;;-144.79;100.00
19827;BME280;10074;52.018;4.726;2022-07-22T09:27:35;46223.25;;;-144.79;100.00
19827;BME280;10074;52.018;4.726;2022-07-22T09:32:43;46223.25;;;-144.79;100.00
19827;BME280;10074;52.018;4.726;2022-07-22T09:37:54;46215.25;;;-144.79;100.00
19827;BME280;10074;52.018;4.726;2022-07-22T09:42:57;46223.25;;;-144.79;100.00
19827;BME280;10074;52.018;4.726;2022-07-22T09:47:59;46223.25;;;-144.79;100.00
19827;BME280;10074;52.018;4.726;2022-07-22T09:53:00;46221.25;;;-144.79;100.00
19827;BME280;10074;52.018;4.726;2022-07-22T09:58:00;46217.25;;;-144.79;100.00
19827;BME280;10074;52.018;4.726;2022-07-22T10:03:03;46217.25;;;-144.79;100.00
19827;BME280;10074;52.018;4.726;2022-07-22T10:08:06;46225.28;;;-144.79;100.00
19827;BME280;10074;52.018;4.726;2022-07-22T10:13:07;46199.19;;;-144.79;100.00
19827;BME280;10074;52.018;4.726;2022-07-22T10:18:14;46215.25;;;-144.79;100.00
19827;BME280;10074;52.018;4.726;2022-07-22T10:23:15;46193.19;;;-144.79;100.00
19827;BME280;10074;52.018;4.726;2022-07-22T10:28:35;46211.22;;;-144.79;100.00
19827;BME280;10074;52.018;4.726;2022-07-22T10:33:36;46201.22;;;-144.79;100.00
19827;BME280;10074;52.018;4.726;2022-07-22T10:38:37;46205.22;;;-144.79;100.00
19827;BME280;10074;52.018;4.726;2022-07-22T10:48:45;46211.22;;;-144.79;100.00
19827;BME280;10074;52.018;4.726;2022-07-22T10:54:00;46211.22;;;-144.79;100.00
19827;BME280;10074;52.018;4.726;2022-07-22T10:59:12;46209.22;;;-144.79;100.00
19827;BME280;10074;52.018;4.726;2022-07-22T11:04:22;46193.19;;;-144.79;100.00
19827;BME280;10074;52.018;4.726;2022-07-22T11:09:33;46191.19;;;-144.79;100.00
19827;BME280;10074;52.018;4.726;2022-07-22T11:14:34;46201.22;;;-144.79;100.00
19827;BME280;10074;52.018;4.726;2022-07-22T11:19:36;46189.19;;;-144.79;100.00
19827;BME280;10074;52.018;4.726;2022-07-22T11:24:40;46211.22;;;-144.79;100.00
19827;BME280;10074;52.018;4.726;2022-07-22T11:29:41;46199.19;;;-144.79;100.00
19827;BME280;10074;52.018;4.726;2022-07-22T11:34:47;46203.22;;;-144.79;100.00
19827;BME280;10074;52.018;4.726;2022-07-22T11:39:47;46195.19;;;-144.79;100.00
19827;BME280;10074;52.018;4.726;2022-07-22T11:44:48;46199.19;;;-144.79;100.00
19827;BME280;10074;52.018;4.726;2022-07-22T11:49:48;46193.19;;;-144.79;100.00
19827;BME280;10074;52.018;4.726;2022-07-22T11:54:49;46195.19;;;-144.79;100.00
19827;BME280;10074;52.018;4.726;2022-07-22T11:59:50;46199.19;;;-144.79;100.00
19827;BME280;10074;52.018;4.726;2022-07-22T12:04:50;46195.19;;;-144.79;100.00
19827;BME280;10074;52.018;4.726;2022-07-22T12:09:51;46197.19;;;-144.79;100.00
19827;BME280;10074;52.018;4.726;2022-07-22T12:14:57;46191.19;;;-144.79;100.00
19827;BME280;10074;52.018;4.726;2022-07-22T12:20:09;46199.19;;;-144.79;100.00
19827;BME280;10074;52.018;4.726;2022-07-22T12:25:09;46207.22;;;-144.79;100.00
19827;BME280;10074;52.018;4.726;2022-07-22T12:30:13;46195.19;;;-144.79;100.00
19827;BME280;10074;52.018;4.726;2022-07-22T12:35:14;46203.22;;;-144.79;100.00
19827;BME280;10074;52.018;4.726;2022-07-22T12:40:20;46191.19;;;-144.79;100.00
19827;BME280;10074;52.018;4.726;2022-07-22T12:45:20;46199.19;;;-144.79;100.00
19827;BME280;10074;52.018;4.726;2022-07-22T12:50:28;46197.19;;;-144.79;100.00
19827;BME280;10074;52.018;4.726;2022-07-22T12:55:30;46201.22;;;-144.79;100.00
19827;BME280;10074;52.018;4.726;2022-07-22T13:00:33;46199.19;;;-144.79;100.00
19827;BME280;10074;52.018;4.726;2022-07-22T13:05:33;46191.19;;;-144.79;100.00
19827;BME280;10074;52.018;4.726;2022-07-22T13:10:36;46195.19;;;-144.79;100.00
19827;BME280;10074;52.018;4.726;2022-07-22T13:15:37;46195.19;;;-144.79;100.00
19827;BME280;10074;52.018;4.726;2022-07-22T13:20:37;46187.19;;;-144.79;100.00
19827;BME280;10074;52.018;4.726;2022-07-22T13:25:38;46173.13;;;-144.79;100.00
19827;BME280;10074;52.018;4.726;2022-07-22T13:30:38;46173.13;;;-144.79;100.00
19827;BME280;10074;52.018;4.726;2022-07-22T13:35:38;46187.19;;;-144.79;100.00
19827;BME280;10074;52.018;4.726;2022-07-22T13:40:38;46187.19;;;-144.79;100.00
19827;BME280;10074;52.018;4.726;2022-07-22T13:45:39;46169.13;;;-144.79;100.00
19827;BME280;10074;52.018;4.726;2022-07-22T13:50:39;46177.16;;;-144.79;100.00
19827;BME280;10074;52.018;4.726;2022-07-22T13:55:40;46185.16;;;-144.79;100.00
19827;BME280;10074;52.018;4.726;2022-07-22T14:00:41;46173.13;;;-144.79;100.00
19827;BME280;10074;52.018;4.726;2022-07-22T14:05:41;46171.13;;;-144.79;100.00
19827;BME280;10074;52.018;4.726;2022-07-22T14:10:41;46175.16;;;-144.79;100.00
19827;BME280;10074;52.018;4.726;2022-07-22T14:15:42;46195.19;;;-144.79;100.00
19827;BME280;10074;52.018;4.726;2022-07-22T14:20:42;46189.19;;;-144.79;100.00
19827;BME280;10074;52.018;4.726;2022-07-22T14:25:42;46175.16;;;-144.79;100.00
19827;BME280;10074;52.018;4.726;2022-07-22T14:30:43;46181.16;;;-144.79;100.00
19827;BME280;10074;52.018;4.726;2022-07-22T14:35:43;46175.16;;;-144.79;100.00
19827;BME280;10074;52.018;4.726;2022-07-22T14:40:43;46191.19;;;-144.79;100.00
19827;BME280;10074;52.018;4.726;2022-07-22T14:45:44;46175.16;;;-144.79;100.00
19827;BME280;10074;52.018;4.726;2022-07-22T14:50:44;46195.19;;;-144.79;100.00
19827;BME280;10074;52.018;4.726;2022-07-22T14:55:46;46195.19;;;-144.79;100.00
19827;BME280;10074;52.018;4.726;2022-07-22T15:00:46;46183.16;;;-144.79;100.00
19827;BME280;10074;52.018;4.726;2022-07-22T15:05:47;46183.16;;;-144.79;100.00
19827;BME280;10074;52.018;4.726;2022-07-22T15:10:47;46187.19;;;-144.79;100.00
19827;BME280;10074;52.018;4.726;2022-07-22T15:15:47;46195.19;;;-144.79;100.00
19827;BME280;10074;52.018;4.726;2022-07-22T15:20:48;46177.16;;;-144.79;100.00
19827;BME280;10074;52.018;4.726;2022-07-22T15:25:49;46181.16;;;-144.79;100.00
19827;BME280;10074;52.018;4.726;2022-07-22T15:30:49;46167.13;;;-144.79;100.00
19827;BME280;10074;52.018;4.726;2022-07-22T15:35:50;46203.22;;;-144.79;100.00
19827;BME280;10074;52.018;4.726;2022-07-22T15:40:50;46185.16;;;-144.79;100.00
19827;BME280;10074;52.018;4.726;2022-07-22T15:45:50;46187.19;;;-144.79;100.00
19827;BME280;10074;52.018;4.726;2022-07-22T15:50:51;46167.13;;;-144.79;100.00
19827;BME280;10074;52.018;4.726;2022-07-22T15:55:51;46191.19;;;-144.79;100.00
19827;BME280;10074;52.018;4.726;2022-07-22T16:00:51;46181.16;;;-144.79;100.00
19827;BME280;10074;52.018;4.726;2022-07-22T16:05:52;46195.19;;;-144.79;100.00
19827;BME280;10074;52.018;4.726;2022-07-22T16:10:52;46181.16;;;-144.79;100.00
19827;BME280;10074;52.018;4.726;2022-07-22T16:15:53;46195.19;;;-144.79;100.00
19827;BME280;10074;52.018;4.726;2022-07-22T16:20:53;46193.19;;;-144.79;100.00
19827;BME280;10074;52.018;4.726;2022-07-22T16:25:53;46197.19;;;-144.79;100.00
19827;BME280;10074;52.018;4.726;2022-07-22T16:30:53;46183.16;;;-144.79;100.00
19827;BME280;10074;52.018;4.726;2022-07-22T16:35:54;46201.22;;;-144.79;100.00
19827;BME280;10074;52.018;4.726;2022-07-22T16:40:54;46193.19;;;-144.79;100.00
19827;BME280;10074;52.018;4.726;2022-07-22T16:45:54;46187.19;;;-144.79;100.00
19827;BME280;10074;52.018;4.726;2022-07-22T16:50:55;46195.19;;;-144.79;100.00
19827;BME280;10074;52.018;4.726;2022-07-22T16:55:55;46191.19;;;-144.79;100.00
19827;BME280;10074;52.018;4.726;2022-07-22T17:00:56;46193.19;;;-144.79;100.00
19827;BME280;10074;52.018;4.726;2022-07-22T17:05:56;46185.16;;;-144.79;100.00
19827;BME280;10074;52.018;4.726;2022-07-22T17:10:59;46199.19;;;-144.79;100.00
19827;BME280;10074;52.018;4.726;2022-07-22T17:16:00;46195.19;;;-144.79;100.00
19827;BME280;10074;52.018;4.726;2022-07-22T17:21:00;46185.16;;;-144.79;100.00
19827;BME280;10074;52.018;4.726;2022-07-22T17:26:01;46203.22;;;-144.79;100.00
19827;BME280;10074;52.018;4.726;2022-07-22T17:31:07;46193.19;;;-144.79;100.00
19827;BME280;10074;52.018;4.726;2022-07-22T17:36:08;46191.19;;;-144.79;100.00
19827;BME280;10074;52.018;4.726;2022-07-22T17:41:08;46177.16;;;-144.79;100.00
19827;BME280;10074;52.018;4.726;2022-07-22T17:46:09;46203.22;;;-144.79;100.00
19827;BME280;10074;52.018;4.726;2022-07-22T17:51:10;46189.19;;;-144.79;100.00
19827;BME280;10074;52.018;4.726;2022-07-22T17:56:11;46199.19;;;-144.79;100.00
19827;BME280;10074;52.018;4.726;2022-07-22T18:01:11;46197.19;;;-144.79;100.00
19827;BME280;10074;52.018;4.726;2022-07-22T18:06:11;46207.22;;;-144.79;100.00
19827;BME280;10074;52.018;4.726;2022-07-22T18:11:12;46199.19;;;-144.79;100.00
19827;BME280;10074;52.018;4.726;2022-07-22T18:16:14;46205.22;;;-144.79;100.00
19827;BME280;10074;52.018;4.726;2022-07-22T18:21:16;46207.22;;;-144.79;100.00
19827;BME280;10074;52.018;4.726;2022-07-22T18:26:16;46211.22;;;-144.79;100.00
19827;BME280;10074;52.018;4.726;2022-07-22T18:31:17;46213.25;;;-144.79;100.00
19827;BME280;10074;52.018;4.726;2022-07-22T18:36:17;46223.25;;;-144.79;100.00
19827;BME280;10074;52.018;4.726;2022-07-22T18:41:18;46211.22;;;-144.79;100.00
19827;BME280;10074;52.018;4.726;2022-07-22T18:46:18;46223.25;;;-144.79;100.00
19827;BME280;10074;52.018;4.726;2022-07-22T18:51:18;46215.25;;;-144.79;100.00
19827;BME280;10074;52.018;4.726;2022-07-22T18:56:18;46221.25;;;-144.79;100.00
19827;BME280;10074;52.018;4.726;2022-07-22T19:01:19;46217.25;;;-144.79;100.00
19827;BME280;10074;52.018;4.726;2022-07-22T19:06:19;46215.25;;;-144.79;100.00
19827;BME280;10074;52.018;4.726;2022-07-22T19:11:20;46223.25;;;-144.79;100.00
19827;BME280;10074;52.018;4.726;2022-07-22T19:16:20;46209.22;;;-144.79;100.00
19827;BME280;10074;52.018;4.726;2022-07-22T19:21:20;46227.28;;;-144.79;100.00
19827;BME280;10074;52.018;4.726;2022-07-22T19:26:21;46221.25;;;-144.79;100.00
19827;BME280;10074;52.018;4.726;2022-07-22T19:31:21;46225.28;;;-144.79;100.00
19827;BME280;10074;52.018;4.726;2022-07-22T19:36:22;46221.25;;;-144.79;100.00
19827;BME280;10074;52.018;4.726;2022-07-22T19:41:22;46219.25;;;-144.79;100.00
19827;BME280;10074;52.018;4.726;2022-07-22T19:46:23;46223.25;;;-144.79;100.00
19827;BME280;10074;52.018;4.726;2022-07-22T19:51:23;46225.28;;;-144.79;100.00
19827;BME280;10074;52.018;4.726;2022-07-22T19:56:23;46223.25;;;-144.79;100.00
19827;BME280;10074;52.018;4.726;2022-07-22T20:01:24;46223.25;;;-144.79;100.00
19827;BME280;10074;52.018;4.726;2022-07-22T20:06:25;46225.28;;;-144.79;100.00
19827;BME280;10074;52.018;4.726;2022-07-22T20:11:25;46217.25;;;-144.79;100.00
19827;BME280;10074;52.018;4.726;2022-07-22T20:16:26;46227.28;;;-144.79;100.00
19827;BME280;10074;52.018;4.726;2022-07-22T20:21:26;46233.28;;;-144.79;100.00
19827;BME280;10074;52.018;4.726;2022-07-22T20:26:26;46217.25;;;-144.79;100.00
19827;BME280;10074;52.018;4.726;2022-07-22T20:31:27;46227.28;;;-144.79;100.00
19827;BME280;10074;52.018;4.726;2022-07-22T20:36:27;46225.28;;;-144.79;100.00
19827;BME280;10074;52.018;4.726;2022-07-22T20:41:27;46215.25;;;-144.79;100.00
19827;BME280;10074;52.018;4.726;2022-07-22T20:46:28;46219.25;;;-144.79;100.00
19827;BME280;10074;52.018;4.726;2022-07-22T20:51:28;46215.25;;;-144.79;100.00
19827;BME280;10074;52.018;4.726;2022-07-22T20:56:28;46227.28;;;-144.79;100.00
19827;BME280;10074;52.018;4.726;2022-07-22T21:01:29;46215.25;;;-144.79;100.00
19827;BME280;10074;52.018;4.726;2022-07-22T21:06:29;46227.28;;;-144.79;100.00
19827;BME280;10074;52.018;4.726;2022-07-22T21:11:29;46223.25;;;-144.79;100.00
19827;BME280;10074;52.018;4.726;2022-07-22T21:16:30;46219.25;;;-144.79;100.00
19827;BME280;10074;52.018;4.726;2022-07-22T21:21:30;46223.25;;;-144.79;100.00
19827;BME280;10074;52.018;4.726;2022-07-22T21:26:30;46227.28;;;-144.79;100.00
19827;BME280;10074;52.018;4.726;2022-07-22T21:31:31;46231.28;;;-144.79;100.00
19827;BME280;10074;52.018;4.726;2022-07-22T21:36:31;46227.28;;;-144.79;100.00
19827;BME280;10074;52.018;4.726;2022-07-22T21:41:31;46225.28;;;-144.79;100.00
19827;BME280;10074;52.018;4.726;2022-07-22T21:46:32;46217.25;;;-144.79;100.00
19827;BME280;10074;52.018;4.726;2022-07-22T21:51:32;46231.28;;;-144.79;100.00
19827;BME280;10074;52.018;4.726;2022-07-22T21:56:32;46227.28;;;-144.79;100.00
19827;BME280;10074;52.018;4.726;2022-07-22T22:01:52;46225.28;;;-144.79;100.00
19827;BME280;10074;52.018;4.726;2022-07-22T22:06:53;46231.28;;;-144.79;100.00
19827;BME280;10074;52.018;4.726;2022-07-22T22:11:54;46233.28;;;-144.79;100.00
19827;BME280;10074;52.018;4.726;2022-07-22T22:16:55;46219.25;;;-144.79;100.00
19827;BME280;10074;52.018;4.726;2022-07-22T22:21:55;46231.28;;;-144.79;100.00
19827;BME280;10074;52.018;4.726;2022-07-22T22:26:56;46229.28;;;-144.79;100.00
19827;BME280;10074;52.018;4.726;2022-07-22T22:31:56;46227.28;;;-144.79;100.00
19827;BME280;10074;52.018;4.726;2022-07-22T22:36:56;46227.28;;;-144.79;100.00
19827;BME280;10074;52.018;4.726;2022-07-22T22:41:57;46227.28;;;-144.79;100.00
19827;BME280;10074;52.018;4.726;2022-07-22T22:46:57;46209.22;;;-144.79;100.00
19827;BME280;10074;52.018;4.726;2022-07-22T22:51:57;46223.25;;;-144.79;100.00
19827;BME280;10074;52.018;4.726;2022-07-22T22:56:57;46229.28;;;-144.79;100.00
19827;BME280;10074;52.018;4.726;2022-07-22T23:01:58;46217.25;;;-144.79;100.00
19827;BME280;10074;52.018;4.726;2022-07-22T23:06:58;46231.28;;;-144.79;100.00
19827;BME280;10074;52.018;4.726;2022-07-22T23:11:58;46219.25;;;-144.79;100.00
19827;BME280;10074;52.018;4.726;2022-07-22T23:16:59;46231.28;;;-144.79;100.00
19827;BME280;10074;52.018;4.726;2022-07-22T23:21:59;46231.28;;;-144.79;100.00
19827;BME280;10074;52.018;4.726;2022-07-22T23:27:00;46225.28;;;-144.79;100.00
19827;BME280;10074;52.018;4.726;2022-07-22T23:32:00;46231.28;;;-144.79;100.00
19827;BME280;10074;52.018;4.726;2022-07-22T23:37:00;46223.25;;;-144.79;100.00
19827;BME280;10074;52.018;4.726;2022-07-22T23:42:01;46235.28;;;-144.79;100.00
19827;BME280;10074;52.018;4.726;2022-07-22T23:47:04;46235.28;;;-144.79;100.00
19827;BME280;10074;52.018;4.726;2022-07-22T23:52:04;46229.28;;;-144.79;100.00
19827;BME280;10074;52.018;4.726;2022-07-22T23:57:04;46223.25;;;-144.79;100.00
